Time;durP1;ratioP1;P1;durP2;ratioP2;P2;SDS_P1;SDS_P2;PMS_P1;PMS_P2;Temp;Humidity;BMP_temperature;BMP_pressure;BME280_temperature;BME280_humidity;BME280_pressure;Samples;Min_cycle;Max_cycle;Signal;HPM_P1;HPM_P2
2023/07/31 00:00:22;;;;;;;;;;;;;;;15.21;100.00;101060.38;5073308;28;19920;-76
2023/07/31 00:02:47;;;;;;;;;;;;;;;15.21;100.00;101062.19;5073172;28;20372;-76
2023/07/31 00:05:12;;;;;;;;;;;;;;;15.20;100.00;101073.91;5073194;28;20072;-76
2023/07/31 00:07:38;;;;;;;;;;;;;;;15.21;100.00;101063.03;5073427;28;19922;-76
2023/07/31 00:10:03;;;;;;;;;;;;;;;15.20;100.00;101071.22;5055836;28;20340;-76
2023/07/31 00:12:28;;;;;;;;;;;;;;;15.18;100.00;101057.16;5055268;28;20164;-75
2023/07/31 00:14:54;;;;;;;;;;;;;;;15.18;100.00;101041.06;5073410;28;20012;-75
2023/07/31 00:17:19;;;;;;;;;;;;;;;15.16;100.00;101039.38;5073167;28;19959;-75
2023/07/31 00:19:46;;;;;;;;;;;;;;;15.19;100.00;101048.13;5077038;28;19916;-75
2023/07/31 00:22:11;;;;;;;;;;;;;;;15.20;100.00;101037.25;5059429;28;20271;-75
2023/07/31 00:24:36;;;;;;;;;;;;;;;15.20;100.00;101041.75;5077412;28;19923;-75
2023/07/31 00:27:02;;;;;;;;;;;;;;;15.19;100.00;101029.34;5077316;28;19923;-74
2023/07/31 00:29:27;;;;;;;;;;;;;;;15.17;100.00;101042.94;5077494;28;20352;-74
2023/07/31 00:31:52;;;;;;;;;;;;;;;15.16;100.00;101030.53;5076849;28;19920;-75
2023/07/31 00:34:18;;;;;;;;;;;;;;;15.15;100.00;101045.78;5059261;28;19916;-75
2023/07/31 00:36:43;;;;;;;;;;;;;;;15.15;100.00;101044.91;5077025;28;19924;-75
2023/07/31 00:39:08;;;;;;;;;;;;;;;15.14;100.00;101051.28;5076766;28;19927;-74
2023/07/31 00:41:33;;;;;;;;;;;;;;;15.13;100.00;101041.56;5076753;28;19917;-75
2023/07/31 00:43:59;;;;;;;;;;;;;;;15.13;100.00;101041.56;5076648;28;19971;-74
2023/07/31 00:46:24;;;;;;;;;;;;;;;15.13;100.00;101033.53;5058925;28;19916;-75
2023/07/31 00:48:49;;;;;;;;;;;;;;;15.09;100.00;101041.06;5077594;28;19920;-75
2023/07/31 00:51:15;;;;;;;;;;;;;;;15.09;100.00;101037.53;5059239;28;19920;-76
2023/07/31 00:53:41;;;;;;;;;;;;;;;15.07;100.00;101035.03;5076931;28;20312;-76
2023/07/31 00:56:06;;;;;;;;;;;;;;;15.07;100.00;101039.56;5076918;28;19916;-75
2023/07/31 00:58:31;;;;;;;;;;;;;;;15.07;100.00;101039.56;5076784;28;19961;-75
2023/07/31 01:00:57;;;;;;;;;;;;;;;15.05;100.00;101053.13;5076554;28;20011;-76
2023/07/31 01:03:22;;;;;;;;;;;;;;;15.05;100.00;101039.72;5076653;28;20267;-76
2023/07/31 01:06:00;;;;;;;;;;;;;;;15.05;100.00;101045.06;5076951;28;19917;-76
2023/07/31 01:08:31;;;;;;;;;;;;;;;15.00;100.00;101034.00;5076588;28;19917;-75
2023/07/31 01:11:29;;;;;;;;;;;;;;;14.96;100.00;101022.78;5076411;28;20368;-75
2023/07/31 01:13:55;;;;;;;;;;;;;;;14.94;100.00;101031.97;5021155;28;19916;-76
2023/07/31 01:16:20;;;;;;;;;;;;;;;14.92;100.00;101033.97;5059079;28;20405;-77
2023/07/31 01:18:45;;;;;;;;;;;;;;;14.91;100.00;101024.25;5075978;28;19916;-79
2023/07/31 01:21:31;;;;;;;;;;;;;;;14.92;100.00;101036.66;5076041;28;19952;-78
2023/07/31 01:24:15;;;;;;;;;;;;;;;14.93;100.00;101027.63;5058328;28;19912;-78
2023/07/31 01:26:46;;;;;;;;;;;;;;;14.92;100.00;101026.78;5075940;28;19912;-78
2023/07/31 01:29:21;;;;;;;;;;;;;;;14.94;100.00;101015.91;5076056;28;20349;-78
2023/07/31 01:31:47;;;;;;;;;;;;;;;14.92;100.00;101010.69;5075753;28;19995;-78
2023/07/31 01:34:14;;;;;;;;;;;;;;;14.92;100.00;101021.41;5076063;28;19941;-77
2023/07/31 01:36:39;;;;;;;;;;;;;;;14.94;100.00;101018.56;5075619;28;20333;-79
2023/07/31 01:39:04;;;;;;;;;;;;;;;14.93;100.00;101015.06;5076437;28;19947;-76
2023/07/31 01:41:29;;;;;;;;;;;;;;;14.91;100.00;101016.22;5075785;28;20007;-76
2023/07/31 01:43:55;;;;;;;;;;;;;;;14.93;100.00;101014.25;5075804;28;20299;-78
2023/07/31 01:46:20;;;;;;;;;;;;;;;14.93;100.00;100998.16;5076343;28;20022;-80
2023/07/31 01:48:45;;;;;;;;;;;;;;;14.93;100.00;100990.97;5075860;28;19917;-77
2023/07/31 01:51:10;;;;;;;;;;;;;;;14.94;100.00;100989.09;5075955;28;19912;-78
2023/07/31 01:53:36;;;;;;;;;;;;;;;14.95;100.00;100988.09;5075715;28;19923;-77
2023/07/31 01:56:01;;;;;;;;;;;;;;;14.94;100.00;100976.56;5075494;28;19916;-78
2023/07/31 01:58:26;;;;;;;;;;;;;;;14.96;100.00;100973.72;5057934;28;19954;-78
2023/07/31 02:00:51;;;;;;;;;;;;;;;14.96;100.00;100973.72;5057300;28;20321;-78
2023/07/31 02:03:17;;;;;;;;;;;;;;;14.95;100.00;100970.19;5075572;28;19916;-78
2023/07/31 02:05:46;;;;;;;;;;;;;;;14.97;100.00;100962.84;5075541;28;19996;-78
2023/07/31 02:08:11;;;;;;;;;;;;;;;14.98;100.00;100959.13;5075486;28;19970;-77
2023/07/31 02:10:36;;;;;;;;;;;;;;;15.01;100.00;100951.78;5057516;28;20344;-79
2023/07/31 02:13:03;;;;;;;;;;;;;;;15.01;100.00;100952.63;5075381;28;20271;-78
2023/07/31 02:15:29;;;;;;;;;;;;;;;15.01;100.00;100957.16;5075525;28;19916;-79
2023/07/31 02:17:54;;;;;;;;;;;;;;;15.02;100.00;100956.13;5075579;28;19917;-79
2023/07/31 02:20:20;;;;;;;;;;;;;;;15.01;100.00;100955.28;5075314;28;20257;-78
2023/07/31 02:22:45;;;;;;;;;;;;;;;15.02;100.00;100943.59;5075318;28;19916;-77
2023/07/31 02:25:10;;;;;;;;;;;;;;;15.03;100.00;100950.59;5075292;28;19969;-81
2023/07/31 02:27:35;;;;;;;;;;;;;;;15.05;100.00;100948.63;5074733;28;19916;-78
2023/07/31 02:30:01;;;;;;;;;;;;;;;15.06;100.00;100966.38;5057336;28;19969;-79
2023/07/31 02:32:26;;;;;;;;;;;;;;;15.07;100.00;100948.44;5075222;28;19921;-78
2023/07/31 02:34:51;;;;;;;;;;;;;;;15.07;100.00;100948.44;5075065;28;20062;-78
2023/07/31 02:37:16;;;;;;;;;;;;;;;15.06;100.00;100936.91;5074727;28;19943;-77
2023/07/31 02:39:42;;;;;;;;;;;;;;;15.07;100.00;100956.47;5074763;28;20241;-77
2023/07/31 02:42:07;;;;;;;;;;;;;;;15.07;100.00;100938.56;5073478;28;19919;-78
2023/07/31 02:44:32;;;;;;;;;;;;;;;15.08;100.00;100934.88;5056832;28;20006;-77
2023/07/31 02:46:57;;;;;;;;;;;;;;;15.09;100.00;100938.38;5074551;28;19962;-79
2023/07/31 02:49:22;;;;;;;;;;;;;;;15.10;100.00;100935.53;5056455;28;19916;-79
2023/07/31 02:51:48;;;;;;;;;;;;;;;15.10;100.00;100919.47;5054131;28;19988;-78
2023/07/31 02:54:13;;;;;;;;;;;;;;;15.09;100.00;100933.88;5072031;28;19967;-77
2023/07/31 02:56:38;;;;;;;;;;;;;;;15.10;100.00;100927.50;5071962;28;20312;-79
2023/07/31 02:59:03;;;;;;;;;;;;;;;15.11;100.00;100912.28;5071837;28;20363;-82
2023/07/31 03:01:28;;;;;;;;;;;;;;;15.12;100.00;100917.47;5071555;28;20001;-79
2023/07/31 03:03:54;;;;;;;;;;;;;;;15.12;100.00;100912.09;5071868;28;20053;-77
2023/07/31 03:06:19;;;;;;;;;;;;;;;15.16;100.00;100904.56;5071701;28;19917;-77
2023/07/31 03:08:44;;;;;;;;;;;;;;;15.18;100.00;100902.53;5053675;28;19917;-77
2023/07/31 03:11:10;;;;;;;;;;;;;;;15.20;100.00;100899.69;5053547;28;19928;-83
2023/07/31 03:13:35;;;;;;;;;;;;;;;15.21;100.00;100899.56;5053460;28;20007;-76
2023/07/31 03:16:00;;;;;;;;;;;;;;;15.20;100.00;100897.88;5071592;28;19916;-76
2023/07/31 03:18:25;;;;;;;;;;;;;;;15.21;100.00;100893.34;5071356;28;19916;-76
2023/07/31 03:20:50;;;;;;;;;;;;;;;15.22;100.00;100905.75;5071940;28;19981;-82
2023/07/31 03:23:16;;;;;;;;;;;;;;;15.22;100.00;100908.41;5071319;28;19929;-77
2023/07/31 03:25:54;;;;;;;;;;;;;;;15.17;100.00;100895.53;5071763;28;19916;-77
2023/07/31 03:28:19;;;;;;;;;;;;;;;15.11;100.00;100898.88;5071520;28;20365;-76
2023/07/31 03:30:45;;;;;;;;;;;;;;;15.05;100.00;100897.69;5071227;28;19912;-79
2023/07/31 03:33:10;;;;;;;;;;;;;;;15.03;100.00;100886.28;5071166;28;19917;-76
2023/07/31 03:35:35;;;;;;;;;;;;;;;15.00;100.00;100881.28;5071217;28;20015;-77
2023/07/31 03:38:00;;;;;;;;;;;;;;;14.99;100.00;100882.28;5053235;28;19950;-76
2023/07/31 03:40:26;;;;;;;;;;;;;;;14.97;100.00;100886.97;5071339;28;20257;-76
2023/07/31 03:42:51;;;;;;;;;;;;;;;14.97;100.00;100874.44;5071230;28;20283;-76
2023/07/31 03:45:16;;;;;;;;;;;;;;;14.96;100.00;100863.88;5071406;28;19917;-77
2023/07/31 03:47:41;;;;;;;;;;;;;;;14.96;100.00;100874.59;5070926;28;20302;-78
2023/07/31 03:50:07;;;;;;;;;;;;;;;14.99;100.00;100871.59;5070853;28;20336;-79
2023/07/31 03:52:32;;;;;;;;;;;;;;;14.98;100.00;100875.25;5052323;28;19912;-78
2023/07/31 03:54:57;;;;;;;;;;;;;;;14.97;100.00;100857.50;5052937;28;19924;-82
2023/07/31 03:57:23;;;;;;;;;;;;;;;14.95;100.00;100862.19;5070912;28;19923;-76
2023/07/31 03:59:48;;;;;;;;;;;;;;;14.92;100.00;100852.63;5070890;28;21148;-77
2023/07/31 04:02:14;;;;;;;;;;;;;;;14.92;100.00;100851.81;5071049;28;19963;-76
2023/07/31 04:04:39;;;;;;;;;;;;;;;14.91;100.00;100844.78;5071061;28;19927;-76
2023/07/31 04:07:04;;;;;;;;;;;;;;;14.90;100.00;100845.78;5052941;28;19971;-76
2023/07/31 04:09:29;;;;;;;;;;;;;;;14.89;100.00;100847.63;5071248;28;19916;-79
2023/07/31 04:11:55;;;;;;;;;;;;;;;14.90;100.00;100843.94;5070991;28;19920;-80
2023/07/31 04:14:20;;;;;;;;;;;;;;;14.89;100.00;100841.44;5070820;28;19916;-80
2023/07/31 04:16:45;;;;;;;;;;;;;;;14.89;100.00;100847.63;5070954;28;19913;-80
2023/07/31 04:19:11;;;;;;;;;;;;;;;14.89;100.00;100826.19;5052878;28;19917;-81
2023/07/31 04:21:36;;;;;;;;;;;;;;;14.91;100.00;100831.38;5071383;28;19916;-80
2023/07/31 04:24:01;;;;;;;;;;;;;;;14.89;100.00;100823.50;5052823;28;19917;-80
2023/07/31 04:26:26;;;;;;;;;;;;;;;14.92;100.00;100828.53;5071056;28;19928;-81
2023/07/31 04:28:51;;;;;;;;;;;;;;;14.93;100.00;100816.81;5070864;28;20340;-78
2023/07/31 04:31:17;;;;;;;;;;;;;;;14.92;100.00;100817.00;5052641;28;19980;-79
2023/07/31 04:33:42;;;;;;;;;;;;;;;14.92;100.00;100830.38;5070980;28;20344;-80
2023/07/31 04:36:07;;;;;;;;;;;;;;;14.93;100.00;100811.47;5070987;28;19986;-79
2023/07/31 04:38:32;;;;;;;;;;;;;;;14.92;100.00;100819.66;5070733;28;19924;-81
2023/07/31 04:40:58;;;;;;;;;;;;;;;14.92;100.00;100820.50;5070427;28;19930;-81
2023/07/31 04:43:23;;;;;;;;;;;;;;;14.92;100.00;100819.66;5052630;28;19917;-79
2023/07/31 04:45:49;;;;;;;;;;;;;;;14.93;100.00;100816.81;5052046;28;20083;-77
2023/07/31 04:48:15;;;;;;;;;;;;;;;14.93;100.00;100813.31;5070960;28;19917;-78
2023/07/31 04:50:40;;;;;;;;;;;;;;;14.95;100.00;100819.34;5070338;28;19913;-79
2023/07/31 04:53:05;;;;;;;;;;;;;;;14.95;100.00;100808.63;5070925;28;20007;-79
2023/07/31 04:55:30;;;;;;;;;;;;;;;14.94;100.00;100807.78;5070392;28;20290;-79
2023/07/31 04:57:57;;;;;;;;;;;;;;;14.94;100.00;100812.28;5070745;28;20320;-78
2023/07/31 05:00:22;;;;;;;;;;;;;;;14.91;100.00;100809.94;5070708;28;19916;-78
2023/07/31 05:02:48;;;;;;;;;;;;;;;14.86;100.00;100805.09;5070290;28;19924;-78
2023/07/31 05:05:13;;;;;;;;;;;;;;;14.80;100.00;100813.81;5053344;28;20259;-78
2023/07/31 05:07:38;;;;;;;;;;;;;;;14.75;100.00;100800.06;5056088;28;20332;-79
2023/07/31 05:10:04;;;;;;;;;;;;;;;14.67;100.00;100802.75;5074212;28;19938;-78
2023/07/31 05:12:29;;;;;;;;;;;;;;;14.62;100.00;100792.56;5074142;28;19924;-77
2023/07/31 05:14:54;;;;;;;;;;;;;;;14.60;100.00;100795.38;5073828;28;19912;-79
2023/07/31 05:17:19;;;;;;;;;;;;;;;14.60;100.00;100787.34;5073668;28;20236;-78
2023/07/31 05:19:45;;;;;;;;;;;;;;;14.60;100.00;100787.34;5055990;28;20428;-78
2023/07/31 05:22:10;;;;;;;;;;;;;;;14.61;100.00;100788.19;5073691;28;19966;-79
2023/07/31 05:24:35;;;;;;;;;;;;;;;14.61;100.00;100785.50;5073642;28;19916;-78
2023/07/31 05:27:00;;;;;;;;;;;;;;;14.58;100.00;100781.28;5073752;28;20040;-78
2023/07/31 05:29:26;;;;;;;;;;;;;;;14.58;100.00;100780.47;5073583;28;19916;-78
2023/07/31 05:31:51;;;;;;;;;;;;;;;14.59;100.00;100777.63;5073620;28;19966;-81
2023/07/31 05:34:16;;;;;;;;;;;;;;;14.61;100.00;100770.31;5055750;28;20289;-78
2023/07/31 05:36:41;;;;;;;;;;;;;;;14.62;100.00;100768.44;5073665;28;19912;-77
2023/07/31 05:39:08;;;;;;;;;;;;;;;14.62;100.00;100773.81;5073282;28;20009;-77
2023/07/31 05:41:33;;;;;;;;;;;;;;;14.60;100.00;100765.91;5073018;28;19961;-78
2023/07/31 05:43:59;;;;;;;;;;;;;;;14.64;100.00;100758.41;5073461;28;20003;-79
2023/07/31 05:46:24;;;;;;;;;;;;;;;14.67;100.00;100768.78;5073203;28;20366;-78
2023/07/31 05:48:49;;;;;;;;;;;;;;;14.70;100.00;100768.44;5055565;28;20313;-78
2023/07/31 05:51:15;;;;;;;;;;;;;;;14.73;100.00;100760.06;5073773;28;20204;-78
2023/07/31 05:53:40;;;;;;;;;;;;;;;14.76;100.00;100765.13;5073056;28;19913;-76
2023/07/31 05:56:05;;;;;;;;;;;;;;;14.79;100.00;100763.91;5073144;28;20015;-78
2023/07/31 05:58:30;;;;;;;;;;;;;;;14.81;100.00;100760.06;5073152;28;20367;-78
2023/07/31 06:00:56;;;;;;;;;;;;;;;14.85;100.00;100759.72;5072771;28;20236;-78
2023/07/31 06:03:21;;;;;;;;;;;;;;;14.87;100.00;100755.88;5073364;28;20206;-78
2023/07/31 06:05:46;;;;;;;;;;;;;;;14.89;100.00;100753.88;5054579;28;19939;-76
2023/07/31 06:08:11;;;;;;;;;;;;;;;14.92;100.00;100750.84;5054877;28;19924;-77
2023/07/31 06:10:37;;;;;;;;;;;;;;;14.95;100.00;100744.31;5073173;28;20341;-79
2023/07/31 06:13:02;;;;;;;;;;;;;;;14.98;100.00;100747.47;5072799;28;19986;-78
2023/07/31 06:15:27;;;;;;;;;;;;;;;15.05;100.00;100736.94;5072656;28;19916;-78
2023/07/31 06:17:52;;;;;;;;;;;;;;;15.14;100.00;100733.22;5072730;28;20352;-78
2023/07/31 06:20:18;;;;;;;;;;;;;;;15.23;100.00;100733.22;5073057;28;20268;-78
2023/07/31 06:22:43;;;;;;;;;;;;;;;15.27;100.00;100727.34;5072744;28;19920;-79
2023/07/31 06:25:08;;;;;;;;;;;;;;;15.31;100.00;100735.84;5073496;28;20003;-77
2023/07/31 06:27:33;;;;;;;;;;;;;;;15.30;100.00;100729.66;5073487;28;19954;-79
2023/07/31 06:29:59;;;;;;;;;;;;;;;15.32;100.00;100734.84;5072899;28;19982;-77
2023/07/31 06:32:24;;;;;;;;;;;;;;;15.32;100.00;100724.97;5072508;28;19917;-77
2023/07/31 06:34:50;;;;;;;;;;;;;;;15.35;100.00;100731.81;5073318;28;19920;-78
2023/07/31 06:37:15;;;;;;;;;;;;;;;15.37;100.00;100720.94;5072676;28;19912;-80
2023/07/31 06:39:40;;;;;;;;;;;;;;;15.39;100.00;100722.44;5056695;28;20016;-80
2023/07/31 06:42:05;;;;;;;;;;;;;;;15.40;100.00;100724.09;5056306;28;19916;-86
2023/07/31 06:44:31;;;;;;;;;;;;;;;15.41;100.00;100700.81;5073118;28;19913;-82
2023/07/31 06:46:56;;;;;;;;;;;;;;;15.44;100.00;100720.06;5073014;28;20046;-82
2023/07/31 06:49:21;;;;;;;;;;;;;;;15.45;100.00;100719.06;5072292;28;19923;-82
2023/07/31 06:51:46;;;;;;;;;;;;;;;15.48;100.00;100717.84;5072423;28;19916;-83
2023/07/31 06:54:12;;;;;;;;;;;;;;;15.51;100.00;100720.22;5072031;28;19923;-81
2023/07/31 06:56:37;;;;;;;;;;;;;;;15.54;100.00;100709.13;5054063;28;20313;-78
2023/07/31 06:59:03;;;;;;;;;;;;;;;15.56;100.00;100717.81;5072094;28;20335;-79
2023/07/31 07:01:28;;;;;;;;;;;;;;;15.58;100.00;100713.13;5072651;28;19961;-77
2023/07/31 07:03:54;;;;;;;;;;;;;;;15.61;100.00;100722.66;5054309;28;19928;-76
2023/07/31 07:06:19;;;;;;;;;;;;;;;15.63;100.00;100713.44;5072309;28;19921;-78
2023/07/31 07:08:44;;;;;;;;;;;;;;;15.71;100.00;100722.47;5071884;28;19916;-78
2023/07/31 07:11:09;;;;;;;;;;;;;;;15.76;100.00;100715.53;5071900;28;19913;-77
2023/07/31 07:13:35;;;;;;;;;;;;;;;15.79;100.00;100717.91;5071866;28;19952;-80
2023/07/31 07:16:00;;;;;;;;;;;;;;;15.81;100.00;100720.44;5072062;28;20361;-78
2023/07/31 07:18:25;;;;;;;;;;;;;;;15.81;100.00;100713.22;5054221;28;20344;-80
2023/07/31 07:20:51;;;;;;;;;;;;;;;15.80;100.00;100706.16;5071756;28;19992;-78
2023/07/31 07:23:17;;;;;;;;;;;;;;;15.79;100.00;100709.03;5054045;28;19948;-88
2023/07/31 07:25:43;;;;;;;;;;;;;;;15.82;100.00;100722.94;5054107;28;19913;-83
2023/07/31 07:28:08;;;;;;;;;;;;;;;15.88;100.00;100709.81;5071735;28;19912;-82
2023/07/31 07:30:34;;;;;;;;;;;;;;;15.90;100.00;100718.50;5072090;28;19917;-80
2023/07/31 07:32:59;;;;;;;;;;;;;;;15.90;100.00;100723.88;5071968;28;19921;-77
2023/07/31 07:35:24;;;;;;;;;;;;;;;15.90;100.00;100711.31;5071537;28;19923;-79
2023/07/31 07:37:50;;;;;;;;;;;;;;;15.93;100.00;100713.66;5071994;28;19920;-79
2023/07/31 07:40:15;;;;;;;;;;;;;;;15.98;100.00;100716.63;5071901;28;19939;-78
2023/07/31 07:42:40;;;;;;;;;;;;;;;16.04;100.00;100715.06;5071246;28;19996;-77
2023/07/31 07:45:06;;;;;;;;;;;;;;;16.04;100.00;100717.75;5070939;28;19916;-79
2023/07/31 07:47:31;;;;;;;;;;;;;;;15.99;100.00;100720.97;5070818;28;19921;-81
2023/07/31 07:49:56;;;;;;;;;;;;;;;16.00;100.00;100714.59;5070841;28;20033;-77
2023/07/31 07:52:22;;;;;;;;;;;;;;;15.98;100.00;100708.56;5071837;28;19920;-79
2023/07/31 07:54:47;;;;;;;;;;;;;;;16.02;100.00;100711.75;5071037;28;20305;-77
2023/07/31 07:57:12;;;;;;;;;;;;;;;16.05;100.00;100706.03;5071194;28;20057;-79
2023/07/31 07:59:37;;;;;;;;;;;;;;;16.11;100.00;100709.81;5053130;28;19912;-76
2023/07/31 08:02:03;;;;;;;;;;;;;;;16.13;100.00;100713.19;5071215;28;19921;-78
2023/07/31 08:04:28;;;;;;;;;;;;;;;16.11;100.00;100712.50;5070794;28;19913;-78
2023/07/31 08:06:53;;;;;;;;;;;;;;;16.10;100.00;100705.47;5053412;28;19935;-76
2023/07/31 08:09:19;;;;;;;;;;;;;;;16.12;100.00;100698.06;5070806;28;20026;-77
2023/07/31 08:11:44;;;;;;;;;;;;;;;16.15;100.00;100695.03;5070896;28;19923;-79
2023/07/31 08:14:09;;;;;;;;;;;;;;;16.19;100.00;100686.44;5071087;28;19916;-78
2023/07/31 08:16:34;;;;;;;;;;;;;;;16.20;100.00;100698.03;5070987;28;19917;-81
2023/07/31 08:19:00;;;;;;;;;;;;;;;16.15;100.00;100695.03;5070856;28;20011;-77
2023/07/31 08:21:25;;;;;;;;;;;;;;;16.13;100.00;100702.44;5070935;28;19913;-84
2023/07/31 08:23:50;;;;;;;;;;;;;;;16.16;100.00;100694.03;5071099;28;19913;-80
2023/07/31 08:26:16;;;;;;;;;;;;;;;16.15;100.00;100701.25;5070876;28;19916;-77
2023/07/31 08:28:41;;;;;;;;;;;;;;;16.17;100.00;100693.03;5071338;28;19913;-81
2023/07/31 08:31:07;;;;;;;;;;;;;;;16.16;100.00;100691.34;5053483;28;19917;-79
2023/07/31 08:33:32;;;;;;;;;;;;;;;16.18;100.00;100686.63;5070883;28;19916;-79
2023/07/31 08:35:59;;;;;;;;;;;;;;;16.22;100.00;100696.00;5070991;28;20293;-89
2023/07/31 08:38:25;;;;;;;;;;;;;;;16.22;100.00;100691.44;5070961;28;19913;-86
2023/07/31 08:40:50;;;;;;;;;;;;;;;16.25;100.00;100694.81;5072872;28;20030;-80
2023/07/31 08:43:16;;;;;;;;;;;;;;;16.28;100.00;100683.69;5074936;28;20015;-77
2023/07/31 08:45:41;;;;;;;;;;;;;;;16.30;100.00;100695.09;5074341;28;19919;-87
2023/07/31 08:48:07;;;;;;;;;;;;;;;16.29;100.00;100667.41;5075133;28;19916;-79
2023/07/31 08:50:32;;;;;;;;;;;;;;;16.32;100.00;100682.34;5074960;28;20232;-77
2023/07/31 08:52:57;;;;;;;;;;;;;;;16.37;100.00;100685.31;5056798;28;20003;-82
2023/07/31 08:55:24;;;;;;;;;;;;;;;16.39;100.00;100683.25;5075117;28;20324;-80
2023/07/31 08:57:50;;;;;;;;;;;;;;;16.41;100.00;100683.94;5074535;28;19912;-78
2023/07/31 09:00:16;;;;;;;;;;;;;;;16.44;100.00;100677.38;5074592;28;19916;-78
2023/07/31 09:02:45;;;;;;;;;;;;;;;16.45;100.00;100687.06;5075021;28;19917;-77
2023/07/31 09:05:10;;;;;;;;;;;;;;;16.50;100.00;100672.09;5074360;28;20019;-76
2023/07/31 09:07:36;;;;;;;;;;;;;;;16.53;100.00;100692.38;5074843;28;20281;-77
2023/07/31 09:10:01;;;;;;;;;;;;;;;16.59;100.00;100682.78;5056834;28;19920;-77
2023/07/31 09:12:27;;;;;;;;;;;;;;;16.53;100.00;100685.16;5075329;28;20205;-83
2023/07/31 09:14:53;;;;;;;;;;;;;;;16.62;100.00;100685.09;5074574;28;19923;-79
2023/07/31 09:17:28;;;;;;;;;;;;;;;16.69;100.00;100683.31;5056609;28;19917;-79
2023/07/31 09:19:53;;;;;;;;;;;;;;;16.79;100.00;100688.44;5074997;28;19957;-83
2023/07/31 09:22:30;;;;;;;;;;;;;;;16.81;100.00;100683.72;5074876;28;20288;-83
2023/07/31 09:24:56;;;;;;;;;;;;;;;16.85;100.00;100682.31;5075117;28;19924;-80
2023/07/31 09:27:21;;;;;;;;;;;;;;;16.85;100.00;100693.06;5074970;28;19931;-76
2023/07/31 09:29:58;;;;;;;;;;;;;;;16.83;100.00;100684.38;5074501;28;20037;-77
2023/07/31 09:32:24;;;;;;;;;;;;;;;16.84;100.00;100676.13;5075321;28;20355;-81
2023/07/31 09:34:49;;;;;;;;;;;;;;;16.81;100.00;100678.34;5075169;28;19962;-81
2023/07/31 09:37:15;;;;;;;;;;;;;;;16.81;100.00;100671.13;5074069;28;19916;-80
2023/07/31 09:39:47;;;;;;;;;;;;;;;16.88;100.00;100672.09;5073728;28;19916;-77
2023/07/31 09:42:12;;;;;;;;;;;;;;;16.99;100.00;100675.31;5073679;28;19946;-78
2023/07/31 09:44:39;;;;;;;;;;;;;;;17.04;100.00;100676.44;5074100;28;19916;-77
2023/07/31 09:47:04;;;;;;;;;;;;;;;17.14;100.00;100670.78;5074048;28;19920;-79
2023/07/31 09:49:30;;;;;;;;;;;;;;;17.27;100.00;100667.41;5073921;28;19973;-83
2023/07/31 09:51:55;;;;;;;;;;;;;;;17.28;100.00;100678.00;5073400;28;19919;-84
2023/07/31 09:54:20;;;;;;;;;;;;;;;17.23;100.00;100666.16;5073666;28;20344;-81
2023/07/31 09:56:47;;;;;;;;;;;;;;;17.16;100.00;100666.06;5073632;28;19916;-76
2023/07/31 09:59:14;;;;;;;;;;;;;;;17.10;100.00;100670.31;5073785;28;19913;-77
2023/07/31 10:01:42;;;;;;;;;;;;;;;17.07;100.00;100669.84;5074224;28;19916;-76
2023/07/31 10:04:09;;;;;;;;;;;;;;;17.03;100.00;100663.19;5074031;28;19917;-77
2023/07/31 10:06:35;;;;;;;;;;;;;;;16.91;100.00;100669.03;5073991;28;19917;-82
2023/07/31 10:09:01;;;;;;;;;;;;;;;16.86;100.00;100673.25;5073930;28;20413;-78
2023/07/31 10:11:27;;;;;;;;;;;;;;;16.83;100.00;100657.50;5073974;28;20213;-81
2023/07/31 10:13:53;;;;;;;;;;;;;;;16.86;100.00;100674.09;5074288;28;19923;-77
2023/07/31 10:16:20;;;;;;;;;;;;;;;17.00;100.00;100682.38;5073671;28;20293;-81
2023/07/31 10:18:45;;;;;;;;;;;;;;;17.14;100.00;100681.53;5055352;28;19972;-79
2023/07/31 10:21:11;;;;;;;;;;;;;;;17.13;100.00;100669.09;5073528;28;19928;-79
2023/07/31 10:23:36;;;;;;;;;;;;;;;17.18;100.00;100676.63;5055345;28;20240;-79
2023/07/31 10:26:02;;;;;;;;;;;;;;;17.17;100.00;100669.59;5073962;28;19924;-79
2023/07/31 10:28:28;;;;;;;;;;;;;;;17.12;100.00;100669.31;5073093;28;19988;-79
2023/07/31 10:30:54;;;;;;;;;;;;;;;17.08;100.00;100674.22;5073271;28;19928;-80
2023/07/31 10:33:20;;;;;;;;;;;;;;;17.10;100.00;100682.94;5072941;28;19917;-77
2023/07/31 10:35:46;;;;;;;;;;;;;;;17.05;100.00;100674.59;5072975;28;19963;-78
2023/07/31 10:38:12;;;;;;;;;;;;;;;17.11;100.00;100681.91;5073287;28;19957;-78
2023/07/31 10:40:38;;;;;;;;;;;;;;;17.13;100.00;100668.28;5073384;28;19912;-77
2023/07/31 10:43:04;;;;;;;;;;;;;;;17.17;100.00;100681.16;5073100;28;20318;-75
2023/07/31 10:45:36;;;;;;;;;;;;;;;17.20;100.00;100663.84;5073083;28;19916;-81
2023/07/31 10:48:02;;;;;;;;;;;;;;;17.30;100.00;100658.97;5072899;28;19916;-76
2023/07/31 10:50:29;;;;;;;;;;;;;;;17.38;100.00;100660.75;5072530;28;19920;-75
2023/07/31 10:52:55;;;;;;;;;;;;;;;17.34;100.00;100662.97;5072785;28;20390;-80
2023/07/31 10:55:27;;;;;;;;;;;;;;;17.36;100.00;100673.53;5054826;28;19959;-79
2023/07/31 10:57:53;;;;;;;;;;;;;;;17.33;100.00;100661.31;5072724;28;19982;-76
2023/07/31 11:00:19;;;;;;;;;;;;;;;17.42;100.00;100659.34;5053928;28;20353;-76
2023/07/31 11:03:00;;;;;;;;;;;;;;;17.52;100.00;100659.88;5071013;28;20430;-79
2023/07/31 11:05:46;;;;;;;;;;;;;;;17.76;100.00;100641.72;5072501;28;20309;-77
2023/07/31 11:08:14;;;;;;;;;;;;;;;17.90;100.00;100634.63;5072658;28;19986;-78
2023/07/31 11:10:39;;;;;;;;;;;;;;;17.96;100.00;100655.41;5073414;28;19935;-82
2023/07/31 11:13:05;;;;;;;;;;;;;;;17.99;100.00;100649.66;5074390;28;20340;-78
2023/07/31 11:15:30;;;;;;;;;;;;;;;18.06;100.00;100644.31;5074435;28;19992;-81
2023/07/31 11:17:57;;;;;;;;;;;;;;;18.17;100.00;100643.81;5074147;28;19992;-76
2023/07/31 11:20:23;;;;;;;;;;;;;;;18.19;100.00;100640.91;5057267;28;20337;-77
2023/07/31 11:22:49;;;;;;;;;;;;;;;18.29;100.00;100644.94;5075441;28;19927;-82
2023/07/31 11:25:15;;;;;;;;;;;;;;;18.29;100.00;100631.47;5075315;28;19960;-76
2023/07/31 11:27:41;;;;;;;;;;;;;;;18.45;100.00;100619.59;5073763;28;20190;-76
2023/07/31 11:30:07;;;;;;;;;;;;;;;18.57;100.00;100624.41;5072011;28;19912;-77
2023/07/31 11:32:32;;;;;;;;;;;;;;;18.57;100.00;100622.56;5071789;28;19927;-78
2023/07/31 11:34:57;;;;;;;;;;;;;;;18.75;100.00;100626.59;5071775;28;19935;-76
2023/07/31 11:37:23;;;;;;;;;;;;;;;18.57;100.00;100630.66;5071705;28;19916;-80
2023/07/31 11:39:58;;;;;;;;;;;;;;;18.40;100.00;100629.28;5071798;28;19924;-76
2023/07/31 11:42:23;;;;;;;;;;;;;;;18.31;100.00;100629.41;5071299;28;19916;-77
2023/07/31 11:44:48;;;;;;;;;;;;;;;18.17;100.00;100641.13;5071243;28;19978;-78
2023/07/31 11:47:14;;;;;;;;;;;;;;;18.02;100.00;100643.03;5071130;28;19976;-74
2023/07/31 11:49:40;;;;;;;;;;;;;;;17.95;100.00;100640.28;5071125;28;19921;-75
2023/07/31 11:52:05;;;;;;;;;;;;;;;17.88;100.00;100647.44;5071035;28;20019;-75
2023/07/31 11:54:30;;;;;;;;;;;;;;;17.81;100.00;100647.38;5071600;28;19917;-76
2023/07/31 11:56:57;;;;;;;;;;;;;;;17.71;100.00;100642.28;5071296;28;19916;-78
2023/07/31 11:59:23;;;;;;;;;;;;;;;17.66;100.00;100636.66;5070824;28;19916;-79
2023/07/31 12:01:53;;;;;;;;;;;;;;;17.63;100.00;100635.19;5071552;28;19968;-81
2023/07/31 12:04:19;;;;;;;;;;;;;;;17.59;100.00;100620.44;5052929;28;20308;-82
2023/07/31 12:06:44;;;;;;;;;;;;;;;17.63;100.00;100629.81;5052835;28;19916;-77
2023/07/31 12:09:10;;;;;;;;;;;;;;;17.67;100.00;100619.47;5052986;28;19963;-76
2023/07/31 12:11:44;;;;;;;;;;;;;;;17.73;100.00;100616.00;5070866;28;20002;-75
2023/07/31 12:14:21;;;;;;;;;;;;;;;17.74;100.00;100623.06;5071715;28;19923;-75
2023/07/31 12:16:46;;;;;;;;;;;;;;;17.72;100.00;100613.50;5074567;28;19913;-76
2023/07/31 12:19:11;;;;;;;;;;;;;;;17.84;100.00;100619.22;5074910;28;19923;-77
2023/07/31 12:21:37;;;;;;;;;;;;;;;17.87;100.00;100603.53;5075098;28;20259;-75